EmailTwitter


Surface observations / United Kingdom / EGLC

Regions: Quebec | Canada | USA | Europe | France | UK | Elsewhere
Station
Display
Info & Location for EGLC | Help decoding METAR

Weather Conditions observed on 2020/08/05 at 01:20 UTC at LONDON CITY AIRP, UK (EGLC)

Temperature: 17.0 Celsius.

Dewpoint: 11.0 Celsius.

Relative Humidity: 68%

Winds: Southwest at 17 km/h or 9 knots.

Mean Sea level Pressure: 101.30 kilopascals.

Horizontal visibility: 6.21 statute miles or 9.94 kilometers.

Coded METAR:

EGLC 050120Z AUTO 23009KT 9999 NCD 17/11 Q1013=